Nearby METAR Reports

 

KBFI - Seattle/Boeing, Washington, USA
Distance from station: S 10mi, 16km
Updated: Wed, 20-Feb-2019 5:53pm PST
Mostly cloudy
Mostly cloudy
 Wind from N
Wind: N 5 mph , 7 km/h
Temperature: 41°F , 5°C
Wind Chill: 38°F , 3°C
Dew Point: 30°F , -1°C
Humidity: 66%
Barometer: 29.89 inHg , 1012.2 hPa
Clouds: Mostly cloudy
Visibility: 10 miles , 16 km
Cloud details: Mostly cloudy 3300 ft
2019/02/21 01:53 KBFI 210153Z 36004KT 10SM BKN033 05/M01 A2989 RMK AO2 SLP122 T00501006
KRNT - Renton, Washington, USA
Distance from station: SSE 14mi, 23km
Updated: Wed, 20-Feb-2019 5:53pm PST
Clear
Clear
 Wind from N
Wind: N 3 mph , 6 km/h
Temperature: 41°F , 5°C
Dew Point: 32°F , 0°C
Humidity: 70%
Barometer: 29.89 inHg , 1012.2 hPa
Clouds: Clear
Visibility: 10 miles , 16 km
2019/02/21 01:53 KRNT 210153Z 01003KT 10SM CLR 05/00 A2989 RMK AO2 SLP126 T00500000
 
KPAE - Everett, Washington, USA
Distance from station: N 15mi, 25km
Updated: Wed, 20-Feb-2019 5:53pm PST
Mostly cloudy
Mostly cloudy
 Wind from NW
Wind: NW 6 mph , 9 km/h
Temperature: 37°F , 3°C
Wind Chill: 32°F , 0°C
Dew Point: 30°F , -1°C
Humidity: 75%
Barometer: 29.89 inHg , 1012.2 hPa
Clouds: Mostly cloudy
Visibility: 10 miles , 16 km
Cloud details: Mostly cloudy 2600 ft
2019/02/21 01:53 KPAE 210153Z 31005KT 10SM BKN026 03/M01 A2989 RMK AO2 SLP125 T00331011
KSEA - Seattle/Metro, Washington, USA
Distance from station: S 17mi, 27km
Updated: Wed, 20-Feb-2019 5:53pm PST
Partly cloudy
Partly cloudy
 Wind from N
Wind: N 6 mph , 9 km/h
Temperature: 37°F , 3°C
Wind Chill: 32°F , 0°C
Dew Point: 30°F , -1°C
Humidity: 75%
Barometer: 29.88 inHg , 1011.9 hPa
Clouds: Partly cloudy
Visibility: 10 miles , 16 km
Cloud details: Few Clouds 2300 ft
Partly cloudy 3700 ft
2019/02/21 01:53 KSEA 210153Z 36005KT 10SM FEW023 SCT037 03/M01 A2988 RMK AO2 SLP126 T00331011
 
KPWT - Bremerton Ntnl, Washington, USA
Distance from station: SW 24mi, 39km
Updated: Wed, 20-Feb-2019 5:56pm PST
Clear
Clear
 Wind from NE
Wind: NE 6 mph , 9 km/h
Temperature: 36°F , 2°C
Wind Chill: 31°F , -1°C
Dew Point: 32°F , 0°C
Humidity: 87%
Barometer: 29.88 inHg , 1011.9 hPa
Clouds: Clear
Visibility: 10 miles , 16 km
2019/02/21 01:56 KPWT 210156Z AUTO 04005KT 10SM CLR 02/00 A2988 RMK AO2 SLP137 T00220000 FZRANO
KTIW - Tacoma, Washington, USA
Distance from station: SSW 32mi, 52km
Updated: Wed, 20-Feb-2019 5:53pm PST
Mostly cloudy
Mostly cloudy
 Wind from N
Wind: N 10 mph , 17 km/h
Temperature: 39°F , 4°C
Wind Chill: 32°F , 0°C
Dew Point: 30°F , -1°C
Humidity: 70%
Barometer: 29.88 inHg , 1011.9 hPa
Clouds: Mostly cloudy
Visibility: 10 miles , 16 km
Cloud details: Partly cloudy 3400 ft
Mostly cloudy 4000 ft
2019/02/21 01:53 KTIW 210153Z 36009KT 10SM SCT034 BKN040 04/M01 A2988 RMK AO2 SLP120 T00391006
 
KAWO - Arlington Muni, Washington, USA
Distance from station: N 33mi, 54km
Updated: Wed, 20-Feb-2019 5:56pm PST
Overcast
Overcast
 Wind from NW
Wind: NW 7 mph , 11 km/h
Temperature: 39°F , 4°C
Wind Chill: 34°F , 1°C
Dew Point: 34°F , 1°C
Humidity: 81%
Barometer: 29.91 inHg , 1012.9 hPa
Clouds: Overcast
Visibility: 10 miles , 16 km
Cloud details: Overcast 2400 ft
2019/02/21 01:56 KAWO 210156Z AUTO 32006KT 10SM OVC024 04/01 A2991 RMK AO2 SLP133 T00390011
KTCM - Tacoma/Mc Chord, Washington, USA
Distance from station: S 41mi, 65km
Updated: Wed, 20-Feb-2019 6:09pm PST
Overcast
Overcast
 Wind from NNE
Wind: NNE 12 mph , 19 km/h
Temperature: 41°F , 5°C
Wind Chill: 34°F , 1°C
Dew Point: 37°F , 3°C
Humidity: 87%
Barometer: 29.88 inHg , 1011.9 hPa
Clouds: Overcast
Visibility: 10 miles , 16 km
Cloud details: Mostly cloudy 2200 ft
Overcast 4000 ft
2019/02/21 02:09 KTCM 210209Z AUTO 02010KT 10SM BKN022 OVC040 05/03 A2988 RMK AO2 CIG 022V041 BKN V SCT SLP125 $
 
KPLU - Puyallup/Thun, Washington, USA
Distance from station: S 41mi, 66km
Updated: Wed, 20-Feb-2019 5:55pm PST
Mostly cloudy
Mostly cloudy
 Wind from calm
Wind: Calm
Temperature: 37°F , 3°C
Dew Point: 36°F , 2°C
Humidity: 93%
Barometer: 29.87 inHg , 1011.5 hPa
Clouds: Mostly cloudy
Visibility: 10 miles , 16 km
Cloud details: Mostly cloudy 4900 ft
2019/02/21 01:55 KPLU 210155Z AUTO 00000KT 10SM BKN049 03/02 A2987 RMK AO2
KGRF - Fort Lewis/Gray, Washington, USA
Distance from station: SSW 45mi, 72km
Updated: Wed, 20-Feb-2019 5:58pm PST
Overcast
Overcast
 Wind from NNW
Wind: NNW 7 mph , 11 km/h
Temperature: 39°F , 4°C
Wind Chill: 34°F , 1°C
Dew Point: 37°F , 3°C
Humidity: 93%
Barometer: 29.87 inHg , 1011.5 hPa
Clouds: Overcast
Visibility: 10 miles , 16 km
Cloud details: Few Clouds 2600 ft
Overcast 4400 ft
2019/02/21 01:58 KGRF 210158Z AUTO 33006KT 10SM FEW026 OVC044 04/03 A2987 RMK AO2 SLP121 T00440031 $
 
KNUW - Whidbey Is. Nas, Washington, USA
Distance from station: NNW 48mi, 77km
Updated: Wed, 20-Feb-2019 5:56pm PST
Mostly cloudy
Mostly cloudy
 Wind from NNW
Wind: NNW 10 mph , 17 km/h
Temperature: 43°F , 6°C
Wind Chill: 37°F , 3°C
Dew Point: 32°F , 0°C
Humidity: 66%
Barometer: 29.95 inHg , 1014.2 hPa
Clouds: Mostly cloudy
Visibility: 10 miles , 16 km
Cloud details: Few Clouds 1100 ft
Partly cloudy 2400 ft
Partly cloudy 5000 ft
Mostly cloudy 21000 ft
2019/02/21 01:56 KNUW 210156Z 33009KT 10SM FEW011 SCT024 SCT050 BKN210 06/00 A2995 RMK AO2 SLP142 T00610000 $
KSHN - Shelton, Washington, USA
Distance from station: SW 50mi, 80km
Updated: Wed, 20-Feb-2019 5:53pm PST
Clear
Clear
 Wind from calm
Wind: Calm
Temperature: 36°F , 2°C
Dew Point: 34°F , 1°C
Humidity: 93%
Barometer: 29.86 inHg , 1011.2 hPa
Clouds: Clear
Visibility: 10 miles , 16 km
2019/02/21 01:53 KSHN 210153Z AUTO 00000KT 10SM CLR 02/01 A2986 RMK AO2 SLP116 T00220006